»·PEaware :: N6325J KSNA-KOXR

N6325J :: KSNA-KOXR

FLIGHT INFORMATION

Flight Status: Arrived
Operator: Privately registered:
United States
More flights under this callsign
Pilot: Chris S. (27082)
Aircraft: MOONEY M-20K/M ENCORE BRAVO
(M20T)
More flights by this aircraft type
Origin: KSNA John Wayne-Orange Co
United States
Destination: KOXR Oxnard
United States
More flights between these airports :: More routes between these airports
Route: SLI V23 POPPR SMO125 SMO VNY GUYBE
File this flight plan on PilotEdge
Remarks: TEC Route CSTP24
Altitude:
(Current/Filed)
4,000ft
Speed:
(Current/Filed)
170kts
Departed: 24-Mar-20 05:22 PM
Arrived: 24-Mar-20 06:02 PM
Distance/Time
Traveled:
74nm/0:40
Distance/Time
To Go:
Arrived

Flight Plot

Page will automatically refresh every two minutes.

Flight plan parsing failed; only flown route is shown


Map Options




Map Legend


Flown Route
Filed Route
Departure Airport
Arrival Airport
Navaid (VOR, NDB)
Fix

Horizontal Profiles

Position Reports

Time Latitude Longitude Heading Altitude Ground
Speed
24-Mar-20 16:55 33.668095 -117.871654 37 59ft 0kts
24-Mar-20 16:56 33.668095 -117.871654 37 59ft 0kts
24-Mar-20 16:57 33.668095 -117.871654 37 59ft 0kts
24-Mar-20 16:58 33.668095 -117.871654 37 59ft 0kts
24-Mar-20 16:59 33.668095 -117.871654 37 59ft 0kts
24-Mar-20 17:00 33.668095 -117.871654 37 59ft 0kts
24-Mar-20 17:01 33.668095 -117.871654 37 59ft 0kts
24-Mar-20 17:02 33.668095 -117.871654 37 59ft 0kts
24-Mar-20 17:03 33.668095 -117.871654 37 59ft 0kts
24-Mar-20 17:04 33.668095 -117.871654 37 59ft 0kts
24-Mar-20 17:05 33.668095 -117.871654 37 59ft 0kts
24-Mar-20 17:06 33.668095 -117.871654 37 59ft 0kts
24-Mar-20 17:07 33.668095 -117.871654 37 59ft 0kts
24-Mar-20 17:08 33.668095 -117.871654 37 59ft 0kts
24-Mar-20 17:09 33.668095 -117.871654 37 59ft 0kts
24-Mar-20 17:10 33.668095 -117.871654 37 59ft 0kts
24-Mar-20 17:11 33.668095 -117.871654 37 59ft 0kts
24-Mar-20 17:12 33.668095 -117.871654 37 59ft 0kts
24-Mar-20 17:13 33.668095 -117.871654 37 59ft 0kts
24-Mar-20 17:14 33.668095 -117.871654 37 59ft 0kts
24-Mar-20 17:15 33.673078 -117.867552 19 59ft 24kts
24-Mar-20 17:16 33.679707 -117.863872 305 59ft 0kts
24-Mar-20 17:17 33.679707 -117.863872 305 59ft 0kts
24-Mar-20 17:18 33.679707 -117.863872 305 59ft 0kts
24-Mar-20 17:19 33.679707 -117.863873 305 59ft 0kts
24-Mar-20 17:20 33.679707 -117.863873 305 59ft 0kts
24-Mar-20 17:21 33.676011 -117.866774 207 59ft 72kts
24-Mar-20 17:22 33.653899 -117.884506 231 831ft 92kts
24-Mar-20 17:23 33.638207 -117.908992 238 1899ft 91kts
24-Mar-20 17:24 33.619719 -117.937572 234 2049ft 130kts
24-Mar-20 17:25 33.603390 -117.974582 285 2384ft 127kts
24-Mar-20 17:26 33.633113 -117.992884 336 3445ft 123kts
24-Mar-20 17:27 33.667315 -118.007792 336 3999ft 152kts
24-Mar-20 17:28 33.710377 -118.026672 336 4052ft 170kts
24-Mar-20 17:29 33.755285 -118.046772 336 4067ft 171kts
24-Mar-20 17:30 33.789387 -118.078156 277 3972ft 167kts
24-Mar-20 17:31 33.801931 -118.131782 283 4014ft 165kts
24-Mar-20 17:32 33.814578 -118.185235 284 4054ft 165kts
24-Mar-20 17:33 33.826522 -118.238637 283 4049ft 167kts
24-Mar-20 17:34 33.839273 -118.292749 298 4025ft 168kts
24-Mar-20 17:35 33.872814 -118.333074 315 4024ft 169kts
24-Mar-20 17:36 33.908560 -118.370451 317 4003ft 170kts
24-Mar-20 17:37 33.947589 -118.404143 324 3975ft 171kts
24-Mar-20 17:38 33.988224 -118.434908 321 3953ft 172kts
24-Mar-20 17:39 34.032138 -118.455080 348 3981ft 176kts
24-Mar-20 17:40 34.080246 -118.465561 345 3955ft 175kts
24-Mar-20 17:41 34.127993 -118.475522 352 3941ft 171kts
24-Mar-20 17:42 34.175385 -118.479639 351 3999ft 170kts
24-Mar-20 17:43 34.222241 -118.487023 348 4046ft 169kts
24-Mar-20 17:44 34.265274 -118.504582 295 3934ft 170kts
24-Mar-20 17:45 34.261459 -118.558196 254 4053ft 162kts
24-Mar-20 17:46 34.248003 -118.610735 253 4033ft 165kts
24-Mar-20 17:47 34.234466 -118.664056 253 3983ft 166kts
24-Mar-20 17:48 34.220964 -118.717377 253 3962ft 165kts
24-Mar-20 17:49 34.208929 -118.770739 257 3955ft 164kts
24-Mar-20 17:50 34.199875 -118.823384 260 4032ft 153kts
24-Mar-20 17:51 34.197263 -118.874480 269 3894ft 152kts
24-Mar-20 17:52 34.196664 -118.917709 270 3752ft 111kts
24-Mar-20 17:53 34.197743 -118.954778 271 3804ft 112kts
24-Mar-20 17:54 34.198750 -118.992530 271 3452ft 112kts
24-Mar-20 17:55 34.199530 -119.030232 267 2798ft 112kts
24-Mar-20 17:56 34.199224 -119.067730 269 2130ft 110kts
24-Mar-20 17:57 34.199926 -119.104028 273 1535ft 107kts
24-Mar-20 17:58 34.199327 -119.139381 268 1041ft 101kts
24-Mar-20 17:59 34.200061 -119.173885 273 516ft 102kts
24-Mar-20 18:00 34.200793 -119.205713 270 48ft 74kts
24-Mar-20 18:01 34.200605 -119.216672 205 46ft 5kts

Navigation Log

Ident Type
Flight plan parsing failed, navigation log unavailable